sensor_id;sensor_type;location;lat;lon;timestamp;temperature;humidity
62904;DHT22;49000;50.698;13.322;2022-08-19T00:00:07;19.10;99.90
62904;DHT22;49000;50.698;13.322;2022-08-19T00:02:33;19.10;99.90
62904;DHT22;49000;50.698;13.322;2022-08-19T00:04:59;19.00;99.90
62904;DHT22;49000;50.698;13.322;2022-08-19T00:07:24;19.00;99.90
62904;DHT22;49000;50.698;13.322;2022-08-19T00:09:50;18.90;99.90
62904;DHT22;49000;50.698;13.322;2022-08-19T00:12:15;18.70;99.90
62904;DHT22;49000;50.698;13.322;2022-08-19T00:14:41;18.70;99.90
62904;DHT22;49000;50.698;13.322;2022-08-19T00:17:07;18.80;99.90
62904;DHT22;49000;50.698;13.322;2022-08-19T00:19:35;18.80;99.90
62904;DHT22;49000;50.698;13.322;2022-08-19T00:22:00;18.90;99.90
62904;DHT22;49000;50.698;13.322;2022-08-19T00:24:28;18.90;99.90
62904;DHT22;49000;50.698;13.322;2022-08-19T00:26:54;18.90;99.90
62904;DHT22;49000;50.698;13.322;2022-08-19T00:29:21;19.10;99.90
62904;DHT22;49000;50.698;13.322;2022-08-19T00:31:47;19.00;99.90
62904;DHT22;49000;50.698;13.322;2022-08-19T00:34:14;18.90;99.90
62904;DHT22;49000;50.698;13.322;2022-08-19T00:36:41;18.90;99.90
62904;DHT22;49000;50.698;13.322;2022-08-19T00:39:07;18.90;99.90
62904;DHT22;49000;50.698;13.322;2022-08-19T00:41:32;18.90;99.90
62904;DHT22;49000;50.698;13.322;2022-08-19T00:44:08;19.10;99.90
62904;DHT22;49000;50.698;13.322;2022-08-19T00:46:36;19.00;99.90
62904;DHT22;49000;50.698;13.322;2022-08-19T00:49:09;19.00;99.90
62904;DHT22;49000;50.698;13.322;2022-08-19T00:51:35;19.00;99.90
62904;DHT22;49000;50.698;13.322;2022-08-19T00:54:02;19.00;99.90
62904;DHT22;49000;50.698;13.322;2022-08-19T00:56:28;19.00;99.90
62904;DHT22;49000;50.698;13.322;2022-08-19T00:58:55;18.90;99.90
62904;DHT22;49000;50.698;13.322;2022-08-19T01:01:21;18.90;99.90
62904;DHT22;49000;50.698;13.322;2022-08-19T01:03:47;18.90;99.90
62904;DHT22;49000;50.698;13.322;2022-08-19T01:06:13;18.90;99.90
62904;DHT22;49000;50.698;13.322;2022-08-19T01:08:39;18.90;99.90
62904;DHT22;49000;50.698;13.322;2022-08-19T01:11:05;18.80;99.90
62904;DHT22;49000;50.698;13.322;2022-08-19T01:13:33;18.90;99.90
62904;DHT22;49000;50.698;13.322;2022-08-19T01:16:05;18.80;99.90
62904;DHT22;49000;50.698;13.322;2022-08-19T01:18:32;18.70;99.90
62904;DHT22;49000;50.698;13.322;2022-08-19T01:21:04;18.80;99.90
62904;DHT22;49000;50.698;13.322;2022-08-19T01:23:31;18.80;99.90
62904;DHT22;49000;50.698;13.322;2022-08-19T01:26:15;18.80;99.90
62904;DHT22;49000;50.698;13.322;2022-08-19T01:28:42;18.80;99.90
62904;DHT22;49000;50.698;13.322;2022-08-19T01:31:12;18.70;99.90
62904;DHT22;49000;50.698;13.322;2022-08-19T01:33:38;18.70;99.90
62904;DHT22;49000;50.698;13.322;2022-08-19T01:36:05;18.80;99.90
62904;DHT22;49000;50.698;13.322;2022-08-19T01:38:36;18.80;99.90
62904;DHT22;49000;50.698;13.322;2022-08-19T01:41:02;18.80;99.90
62904;DHT22;49000;50.698;13.322;2022-08-19T01:43:27;18.80;99.90
62904;DHT22;49000;50.698;13.322;2022-08-19T01:45:53;18.70;99.90
62904;DHT22;49000;50.698;13.322;2022-08-19T01:48:19;18.70;99.90
62904;DHT22;49000;50.698;13.322;2022-08-19T01:50:44;18.70;99.90
62904;DHT22;49000;50.698;13.322;2022-08-19T01:53:11;18.70;99.90
62904;DHT22;49000;50.698;13.322;2022-08-19T01:55:39;18.70;99.90
62904;DHT22;49000;50.698;13.322;2022-08-19T01:58:06;18.60;99.90
62904;DHT22;49000;50.698;13.322;2022-08-19T02:00:32;18.70;99.90
62904;DHT22;49000;50.698;13.322;2022-08-19T02:02:58;18.60;99.90
62904;DHT22;49000;50.698;13.322;2022-08-19T02:05:24;18.60;99.90
62904;DHT22;49000;50.698;13.322;2022-08-19T02:07:50;18.60;99.90
62904;DHT22;49000;50.698;13.322;2022-08-19T02:10:19;18.60;99.90
62904;DHT22;49000;50.698;13.322;2022-08-19T02:12:45;18.60;99.90
62904;DHT22;49000;50.698;13.322;2022-08-19T02:15:11;18.70;99.90
62904;DHT22;49000;50.698;13.322;2022-08-19T02:17:37;18.60;99.90
62904;DHT22;49000;50.698;13.322;2022-08-19T02:20:04;18.60;99.90
62904;DHT22;49000;50.698;13.322;2022-08-19T02:22:30;18.60;99.90
62904;DHT22;49000;50.698;13.322;2022-08-19T02:24:55;18.70;99.90
62904;DHT22;49000;50.698;13.322;2022-08-19T02:27:22;18.70;99.90
62904;DHT22;49000;50.698;13.322;2022-08-19T02:29:48;18.70;99.90
62904;DHT22;49000;50.698;13.322;2022-08-19T02:32:16;18.70;99.90
62904;DHT22;49000;50.698;13.322;2022-08-19T02:34:41;18.70;99.90
62904;DHT22;49000;50.698;13.322;2022-08-19T02:37:07;18.80;99.90
62904;DHT22;49000;50.698;13.322;2022-08-19T02:39:52;18.90;99.90
62904;DHT22;49000;50.698;13.322;2022-08-19T02:42:18;18.90;99.90
62904;DHT22;49000;50.698;13.322;2022-08-19T02:44:43;18.90;99.90
62904;DHT22;49000;50.698;13.322;2022-08-19T02:47:09;18.90;99.90
62904;DHT22;49000;50.698;13.322;2022-08-19T02:49:35;18.80;99.90
62904;DHT22;49000;50.698;13.322;2022-08-19T02:52:02;18.90;99.90
62904;DHT22;49000;50.698;13.322;2022-08-19T02:54:28;18.80;99.90
62904;DHT22;49000;50.698;13.322;2022-08-19T02:56:53;18.90;99.90
62904;DHT22;49000;50.698;13.322;2022-08-19T02:59:19;18.90;99.90
62904;DHT22;49000;50.698;13.322;2022-08-19T03:01:45;18.90;99.90
62904;DHT22;49000;50.698;13.322;2022-08-19T03:04:13;19.00;99.90
62904;DHT22;49000;50.698;13.322;2022-08-19T03:06:44;19.10;99.90
62904;DHT22;49000;50.698;13.322;2022-08-19T03:09:11;19.10;99.90
62904;DHT22;49000;50.698;13.322;2022-08-19T03:11:37;19.10;99.90
62904;DHT22;49000;50.698;13.322;2022-08-19T03:14:05;19.30;99.90
62904;DHT22;49000;50.698;13.322;2022-08-19T03:16:34;19.10;99.90
62904;DHT22;49000;50.698;13.322;2022-08-19T03:19:00;19.10;99.90
62904;DHT22;49000;50.698;13.322;2022-08-19T03:21:32;19.00;99.90
62904;DHT22;49000;50.698;13.322;2022-08-19T03:24:02;19.10;99.90
62904;DHT22;49000;50.698;13.322;2022-08-19T03:26:28;19.10;99.90
62904;DHT22;49000;50.698;13.322;2022-08-19T03:28:54;19.10;99.90
62904;DHT22;49000;50.698;13.322;2022-08-19T03:31:21;19.00;99.90
62904;DHT22;49000;50.698;13.322;2022-08-19T03:33:51;19.00;99.90
62904;DHT22;49000;50.698;13.322;2022-08-19T03:36:22;19.00;99.90
62904;DHT22;49000;50.698;13.322;2022-08-19T03:38:53;19.00;99.90
62904;DHT22;49000;50.698;13.322;2022-08-19T03:41:31;19.00;99.90
62904;DHT22;49000;50.698;13.322;2022-08-19T03:43:57;18.90;99.90
62904;DHT22;49000;50.698;13.322;2022-08-19T03:46:30;18.90;99.90
62904;DHT22;49000;50.698;13.322;2022-08-19T03:48:57;18.90;99.90
62904;DHT22;49000;50.698;13.322;2022-08-19T03:51:26;18.90;99.90
62904;DHT22;49000;50.698;13.322;2022-08-19T03:53:53;18.90;99.90
62904;DHT22;49000;50.698;13.322;2022-08-19T03:56:19;18.80;99.90
62904;DHT22;49000;50.698;13.322;2022-08-19T03:58:45;18.80;99.90
62904;DHT22;49000;50.698;13.322;2022-08-19T04:01:14;18.90;99.90
62904;DHT22;49000;50.698;13.322;2022-08-19T04:03:40;19.00;99.90
62904;DHT22;49000;50.698;13.322;2022-08-19T04:08:44;19.00;99.90
62904;DHT22;49000;50.698;13.322;2022-08-19T04:11:12;19.00;99.90
62904;DHT22;49000;50.698;13.322;2022-08-19T04:13:38;18.90;99.90
62904;DHT22;49000;50.698;13.322;2022-08-19T04:16:05;19.10;99.90
62904;DHT22;49000;50.698;13.322;2022-08-19T04:18:32;18.90;99.90
62904;DHT22;49000;50.698;13.322;2022-08-19T04:20:59;18.90;99.90
62904;DHT22;49000;50.698;13.322;2022-08-19T04:23:24;19.00;99.90
62904;DHT22;49000;50.698;13.322;2022-08-19T04:25:50;18.90;99.90
62904;DHT22;49000;50.698;13.322;2022-08-19T04:28:16;19.00;99.90
62904;DHT22;49000;50.698;13.322;2022-08-19T04:30:44;18.90;99.90
62904;DHT22;49000;50.698;13.322;2022-08-19T04:33:12;18.80;99.90
62904;DHT22;49000;50.698;13.322;2022-08-19T04:35:39;18.90;99.90
62904;DHT22;49000;50.698;13.322;2022-08-19T04:38:06;18.90;99.90
62904;DHT22;49000;50.698;13.322;2022-08-19T04:40:31;18.90;99.90
62904;DHT22;49000;50.698;13.322;2022-08-19T04:43:16;19.00;99.90
62904;DHT22;49000;50.698;13.322;2022-08-19T04:45:47;19.10;99.90
62904;DHT22;49000;50.698;13.322;2022-08-19T04:48:12;19.00;99.90
62904;DHT22;49000;50.698;13.322;2022-08-19T04:50:43;19.00;99.90
62904;DHT22;49000;50.698;13.322;2022-08-19T04:53:09;19.00;99.90
62904;DHT22;49000;50.698;13.322;2022-08-19T04:55:37;19.00;99.90
62904;DHT22;49000;50.698;13.322;2022-08-19T04:58:03;19.00;99.90
62904;DHT22;49000;50.698;13.322;2022-08-19T05:00:29;19.00;99.90
62904;DHT22;49000;50.698;13.322;2022-08-19T05:02:54;18.90;99.90
62904;DHT22;49000;50.698;13.322;2022-08-19T05:05:19;18.90;99.90
62904;DHT22;49000;50.698;13.322;2022-08-19T05:07:46;18.80;99.90
62904;DHT22;49000;50.698;13.322;2022-08-19T05:10:11;18.90;99.90
62904;DHT22;49000;50.698;13.322;2022-08-19T05:12:38;18.90;99.90
62904;DHT22;49000;50.698;13.322;2022-08-19T05:15:05;19.10;99.90
62904;DHT22;49000;50.698;13.322;2022-08-19T05:17:31;19.00;99.90
62904;DHT22;49000;50.698;13.322;2022-08-19T05:19:57;19.10;99.90
62904;DHT22;49000;50.698;13.322;2022-08-19T05:22:42;19.20;99.90
62904;DHT22;49000;50.698;13.322;2022-08-19T05:25:11;19.10;99.90
62904;DHT22;49000;50.698;13.322;2022-08-19T05:27:37;19.10;99.90
62904;DHT22;49000;50.698;13.322;2022-08-19T05:30:04;19.10;99.90
62904;DHT22;49000;50.698;13.322;2022-08-19T05:32:30;19.10;99.90
62904;DHT22;49000;50.698;13.322;2022-08-19T05:34:56;19.10;99.90
62904;DHT22;49000;50.698;13.322;2022-08-19T05:37:22;19.10;99.90
62904;DHT22;49000;50.698;13.322;2022-08-19T05:39:47;19.00;99.90
62904;DHT22;49000;50.698;13.322;2022-08-19T05:42:14;19.00;99.90
62904;DHT22;49000;50.698;13.322;2022-08-19T05:44:42;19.00;99.90
62904;DHT22;49000;50.698;13.322;2022-08-19T05:47:10;19.00;99.90
62904;DHT22;49000;50.698;13.322;2022-08-19T05:49:37;19.10;99.90
62904;DHT22;49000;50.698;13.322;2022-08-19T05:52:09;19.20;99.90
62904;DHT22;49000;50.698;13.322;2022-08-19T05:54:37;19.20;99.90
62904;DHT22;49000;50.698;13.322;2022-08-19T05:57:05;19.00;99.90
62904;DHT22;49000;50.698;13.322;2022-08-19T05:59:31;19.00;99.90
62904;DHT22;49000;50.698;13.322;2022-08-19T06:01:56;19.00;99.90
62904;DHT22;49000;50.698;13.322;2022-08-19T06:04:22;19.10;99.90
62904;DHT22;49000;50.698;13.322;2022-08-19T06:06:50;19.10;99.90
62904;DHT22;49000;50.698;13.322;2022-08-19T06:09:17;19.10;99.90
62904;DHT22;49000;50.698;13.322;2022-08-19T06:11:45;19.10;99.90
62904;DHT22;49000;50.698;13.322;2022-08-19T06:14:15;19.10;99.90
62904;DHT22;49000;50.698;13.322;2022-08-19T06:16:42;19.10;99.90
62904;DHT22;49000;50.698;13.322;2022-08-19T06:19:10;19.10;99.90
62904;DHT22;49000;50.698;13.322;2022-08-19T06:21:38;19.20;99.90
62904;DHT22;49000;50.698;13.322;2022-08-19T06:24:06;19.20;99.90
62904;DHT22;49000;50.698;13.322;2022-08-19T06:26:34;19.30;99.90
62904;DHT22;49000;50.698;13.322;2022-08-19T06:29:00;19.30;99.90
62904;DHT22;49000;50.698;13.322;2022-08-19T06:31:28;19.30;99.90
62904;DHT22;49000;50.698;13.322;2022-08-19T06:33:54;19.30;99.90
62904;DHT22;49000;50.698;13.322;2022-08-19T06:36:28;19.20;99.90
62904;DHT22;49000;50.698;13.322;2022-08-19T06:38:58;19.20;99.90
62904;DHT22;49000;50.698;13.322;2022-08-19T06:41:24;19.30;99.90
62904;DHT22;49000;50.698;13.322;2022-08-19T06:43:50;19.20;99.90
62904;DHT22;49000;50.698;13.322;2022-08-19T06:46:17;19.30;99.90
62904;DHT22;49000;50.698;13.322;2022-08-19T06:48:43;19.30;99.90
62904;DHT22;49000;50.698;13.322;2022-08-19T06:51:09;19.30;99.90
62904;DHT22;49000;50.698;13.322;2022-08-19T06:53:35;19.30;99.90
62904;DHT22;49000;50.698;13.322;2022-08-19T06:56:01;19.30;99.90
62904;DHT22;49000;50.698;13.322;2022-08-19T06:58:30;19.30;99.90
62904;DHT22;49000;50.698;13.322;2022-08-19T07:00:59;19.40;99.90
62904;DHT22;49000;50.698;13.322;2022-08-19T07:03:30;19.40;99.90
62904;DHT22;49000;50.698;13.322;2022-08-19T07:05:57;19.40;99.90
62904;DHT22;49000;50.698;13.322;2022-08-19T07:08:22;19.50;99.90
62904;DHT22;49000;50.698;13.322;2022-08-19T07:10:49;19.40;99.90
62904;DHT22;49000;50.698;13.322;2022-08-19T07:13:14;19.60;99.90
62904;DHT22;49000;50.698;13.322;2022-08-19T07:15:40;19.50;99.90
62904;DHT22;49000;50.698;13.322;2022-08-19T07:18:06;19.40;99.90
62904;DHT22;49000;50.698;13.322;2022-08-19T07:20:31;19.50;99.90
62904;DHT22;49000;50.698;13.322;2022-08-19T07:22:58;19.40;99.90
62904;DHT22;49000;50.698;13.322;2022-08-19T07:25:23;19.40;99.90
62904;DHT22;49000;50.698;13.322;2022-08-19T07:27:49;19.40;99.90
62904;DHT22;49000;50.698;13.322;2022-08-19T07:30:15;19.40;99.90
62904;DHT22;49000;50.698;13.322;2022-08-19T07:32:41;19.40;99.90
62904;DHT22;49000;50.698;13.322;2022-08-19T07:35:08;19.30;99.90
62904;DHT22;49000;50.698;13.322;2022-08-19T07:37:34;19.30;99.90
62904;DHT22;49000;50.698;13.322;2022-08-19T07:40:03;19.50;99.90
62904;DHT22;49000;50.698;13.322;2022-08-19T07:42:29;19.50;99.90
62904;DHT22;49000;50.698;13.322;2022-08-19T07:44:54;19.40;99.90
62904;DHT22;49000;50.698;13.322;2022-08-19T07:47:20;19.50;99.90
62904;DHT22;49000;50.698;13.322;2022-08-19T07:49:45;19.60;99.90
62904;DHT22;49000;50.698;13.322;2022-08-19T07:52:12;19.70;99.90
62904;DHT22;49000;50.698;13.322;2022-08-19T07:54:39;19.80;99.90
62904;DHT22;49000;50.698;13.322;2022-08-19T07:57:05;19.90;99.90
62904;DHT22;49000;50.698;13.322;2022-08-19T07:59:31;19.90;99.90
62904;DHT22;49000;50.698;13.322;2022-08-19T08:01:58;20.00;99.90
62904;DHT22;49000;50.698;13.322;2022-08-19T08:04:25;20.20;99.90
62904;DHT22;49000;50.698;13.322;2022-08-19T08:07:10;20.10;99.90
62904;DHT22;49000;50.698;13.322;2022-08-19T08:09:54;20.10;99.90
62904;DHT22;49000;50.698;13.322;2022-08-19T08:12:27;20.10;99.90
62904;DHT22;49000;50.698;13.322;2022-08-19T08:14:56;20.10;99.90
62904;DHT22;49000;50.698;13.322;2022-08-19T08:17:24;19.90;99.90
62904;DHT22;49000;50.698;13.322;2022-08-19T08:19:51;19.90;99.90
62904;DHT22;49000;50.698;13.322;2022-08-19T08:22:20;20.00;99.90
62904;DHT22;49000;50.698;13.322;2022-08-19T08:25:07;20.10;99.90
62904;DHT22;49000;50.698;13.322;2022-08-19T08:27:38;19.90;99.90
62904;DHT22;49000;50.698;13.322;2022-08-19T08:30:06;20.10;99.90
62904;DHT22;49000;50.698;13.322;2022-08-19T08:32:36;20.20;99.90
62904;DHT22;49000;50.698;13.322;2022-08-19T08:35:04;20.40;99.90
62904;DHT22;49000;50.698;13.322;2022-08-19T08:37:29;20.50;99.90
62904;DHT22;49000;50.698;13.322;2022-08-19T08:39:55;20.60;99.90
62904;DHT22;49000;50.698;13.322;2022-08-19T08:42:27;20.40;99.90
62904;DHT22;49000;50.698;13.322;2022-08-19T08:45:03;20.30;99.90
62904;DHT22;49000;50.698;13.322;2022-08-19T08:47:36;20.40;99.90
62904;DHT22;49000;50.698;13.322;2022-08-19T08:50:06;20.50;99.90
62904;DHT22;49000;50.698;13.322;2022-08-19T08:52:41;20.60;99.90
62904;DHT22;49000;50.698;13.322;2022-08-19T08:55:17;20.50;99.90
62904;DHT22;49000;50.698;13.322;2022-08-19T08:58:01;20.60;99.90
62904;DHT22;49000;50.698;13.322;2022-08-19T09:00:34;20.50;99.90
62904;DHT22;49000;50.698;13.322;2022-08-19T09:03:01;20.40;99.90
62904;DHT22;49000;50.698;13.322;2022-08-19T09:05:41;20.40;99.90
62904;DHT22;49000;50.698;13.322;2022-08-19T09:08:15;20.10;99.90
62904;DHT22;49000;50.698;13.322;2022-08-19T09:10:51;20.20;99.90
62904;DHT22;49000;50.698;13.322;2022-08-19T09:13:49;20.20;99.90
62904;DHT22;49000;50.698;13.322;2022-08-19T09:16:20;20.10;99.90
62904;DHT22;49000;50.698;13.322;2022-08-19T09:18:51;20.20;99.90
62904;DHT22;49000;50.698;13.322;2022-08-19T09:21:19;19.90;99.90
62904;DHT22;49000;50.698;13.322;2022-08-19T09:23:45;20.00;99.90
62904;DHT22;49000;50.698;13.322;2022-08-19T09:26:13;20.00;99.90
62904;DHT22;49000;50.698;13.322;2022-08-19T09:28:41;20.10;99.90
62904;DHT22;49000;50.698;13.322;2022-08-19T09:31:10;20.20;99.90
62904;DHT22;49000;50.698;13.322;2022-08-19T09:33:37;20.10;99.90
62904;DHT22;49000;50.698;13.322;2022-08-19T09:36:07;20.10;99.90
62904;DHT22;49000;50.698;13.322;2022-08-19T09:38:34;20.20;99.90
62904;DHT22;49000;50.698;13.322;2022-08-19T09:41:08;20.30;99.90
62904;DHT22;49000;50.698;13.322;2022-08-19T09:43:37;20.50;99.90
62904;DHT22;49000;50.698;13.322;2022-08-19T09:46:04;20.60;99.90
62904;DHT22;49000;50.698;13.322;2022-08-19T09:48:32;20.60;99.90
62904;DHT22;49000;50.698;13.322;2022-08-19T09:51:16;20.60;99.90
62904;DHT22;49000;50.698;13.322;2022-08-19T09:53:43;20.30;99.90
62904;DHT22;49000;50.698;13.322;2022-08-19T09:56:09;20.30;99.90
62904;DHT22;49000;50.698;13.322;2022-08-19T09:58:36;20.10;99.90
62904;DHT22;49000;50.698;13.322;2022-08-19T10:01:02;20.30;99.90
62904;DHT22;49000;50.698;13.322;2022-08-19T10:03:29;20.60;99.90
62904;DHT22;49000;50.698;13.322;2022-08-19T10:05:57;20.70;99.90
62904;DHT22;49000;50.698;13.322;2022-08-19T10:08:27;20.80;99.90
62904;DHT22;49000;50.698;13.322;2022-08-19T10:10:54;20.80;99.90
62904;DHT22;49000;50.698;13.322;2022-08-19T10:13:22;20.70;99.90
62904;DHT22;49000;50.698;13.322;2022-08-19T10:15:49;20.40;99.90
62904;DHT22;49000;50.698;13.322;2022-08-19T10:18:19;20.20;99.90
62904;DHT22;49000;50.698;13.322;2022-08-19T10:20:47;20.10;99.90
62904;DHT22;49000;50.698;13.322;2022-08-19T10:23:13;19.80;99.90
62904;DHT22;49000;50.698;13.322;2022-08-19T10:25:41;20.00;99.90
62904;DHT22;49000;50.698;13.322;2022-08-19T10:28:07;20.10;99.90
62904;DHT22;49000;50.698;13.322;2022-08-19T10:30:35;20.20;99.90
62904;DHT22;49000;50.698;13.322;2022-08-19T10:33:00;20.30;99.90
62904;DHT22;49000;50.698;13.322;2022-08-19T10:35:26;20.20;99.90
62904;DHT22;49000;50.698;13.322;2022-08-19T10:37:53;20.30;99.90
62904;DHT22;49000;50.698;13.322;2022-08-19T10:40:19;20.50;99.90
62904;DHT22;49000;50.698;13.322;2022-08-19T10:42:44;20.70;99.90
62904;DHT22;49000;50.698;13.322;2022-08-19T10:45:10;20.90;99.90
62904;DHT22;49000;50.698;13.322;2022-08-19T10:47:36;20.80;99.90
62904;DHT22;49000;50.698;13.322;2022-08-19T10:50:03;21.00;99.90
62904;DHT22;49000;50.698;13.322;2022-08-19T10:52:50;21.10;99.90
62904;DHT22;49000;50.698;13.322;2022-08-19T10:55:18;21.30;99.90
62904;DHT22;49000;50.698;13.322;2022-08-19T10:58:02;21.10;99.90
62904;DHT22;49000;50.698;13.322;2022-08-19T11:00:27;21.10;99.90
62904;DHT22;49000;50.698;13.322;2022-08-19T11:02:53;21.20;99.90
62904;DHT22;49000;50.698;13.322;2022-08-19T11:05:18;21.30;99.90
62904;DHT22;49000;50.698;13.322;2022-08-19T11:07:44;21.20;99.90
62904;DHT22;49000;50.698;13.322;2022-08-19T11:10:12;21.00;99.90
62904;DHT22;49000;50.698;13.322;2022-08-19T11:12:39;20.80;99.90
62904;DHT22;49000;50.698;13.322;2022-08-19T11:15:07;20.80;99.90
62904;DHT22;49000;50.698;13.322;2022-08-19T11:17:34;20.80;99.90
62904;DHT22;49000;50.698;13.322;2022-08-19T11:20:01;20.80;99.90
62904;DHT22;49000;50.698;13.322;2022-08-19T11:22:29;20.80;99.90
62904;DHT22;49000;50.698;13.322;2022-08-19T11:24:54;20.80;99.90
62904;DHT22;49000;50.698;13.322;2022-08-19T11:27:20;20.90;99.90
62904;DHT22;49000;50.698;13.322;2022-08-19T11:29:46;20.90;99.90
62904;DHT22;49000;50.698;13.322;2022-08-19T11:32:12;20.70;99.90
62904;DHT22;49000;50.698;13.322;2022-08-19T11:34:38;20.70;99.90
62904;DHT22;49000;50.698;13.322;2022-08-19T11:37:05;20.90;99.90
62904;DHT22;49000;50.698;13.322;2022-08-19T11:39:31;21.00;99.90
62904;DHT22;49000;50.698;13.322;2022-08-19T11:41:58;21.10;99.90
62904;DHT22;49000;50.698;13.322;2022-08-19T11:44:24;21.20;99.90
62904;DHT22;49000;50.698;13.322;2022-08-19T11:46:50;21.30;99.90
62904;DHT22;49000;50.698;13.322;2022-08-19T11:49:18;21.30;99.90
62904;DHT22;49000;50.698;13.322;2022-08-19T11:51:45;21.30;99.90
62904;DHT22;49000;50.698;13.322;2022-08-19T11:54:15;21.30;99.90
62904;DHT22;49000;50.698;13.322;2022-08-19T11:56:41;21.20;99.90
62904;DHT22;49000;50.698;13.322;2022-08-19T11:59:07;21.20;99.90
62904;DHT22;49000;50.698;13.322;2022-08-19T12:01:33;21.10;99.90
62904;DHT22;49000;50.698;13.322;2022-08-19T12:03:59;21.10;99.90
62904;DHT22;49000;50.698;13.322;2022-08-19T12:06:28;21.10;99.90
62904;DHT22;49000;50.698;13.322;2022-08-19T12:08:59;21.10;99.90
62904;DHT22;49000;50.698;13.322;2022-08-19T12:11:25;21.00;99.90
62904;DHT22;49000;50.698;13.322;2022-08-19T12:13:51;20.90;99.90
62904;DHT22;49000;50.698;13.322;2022-08-19T12:16:23;20.80;99.90
62904;DHT22;49000;50.698;13.322;2022-08-19T12:18:50;20.90;99.90
62904;DHT22;49000;50.698;13.322;2022-08-19T12:21:21;21.00;99.90
62904;DHT22;49000;50.698;13.322;2022-08-19T12:23:49;20.90;99.90
62904;DHT22;49000;50.698;13.322;2022-08-19T12:26:15;20.90;99.90
62904;DHT22;49000;50.698;13.322;2022-08-19T12:28:41;20.80;99.90
62904;DHT22;49000;50.698;13.322;2022-08-19T12:31:07;20.70;99.90
62904;DHT22;49000;50.698;13.322;2022-08-19T12:33:33;20.50;99.90
62904;DHT22;49000;50.698;13.322;2022-08-19T12:36:04;20.50;99.90
62904;DHT22;49000;50.698;13.322;2022-08-19T12:38:30;20.50;99.90
62904;DHT22;49000;50.698;13.322;2022-08-19T12:40:57;20.60;99.90
62904;DHT22;49000;50.698;13.322;2022-08-19T12:43:23;20.50;99.90
62904;DHT22;49000;50.698;13.322;2022-08-19T12:45:48;20.50;99.90
62904;DHT22;49000;50.698;13.322;2022-08-19T12:48:14;20.60;99.90
62904;DHT22;49000;50.698;13.322;2022-08-19T12:50:41;20.50;99.90
62904;DHT22;49000;50.698;13.322;2022-08-19T12:53:07;20.40;99.90
62904;DHT22;49000;50.698;13.322;2022-08-19T12:55:33;20.40;99.90
62904;DHT22;49000;50.698;13.322;2022-08-19T12:57:59;20.30;99.90
62904;DHT22;49000;50.698;13.322;2022-08-19T13:00:27;20.40;99.90
62904;DHT22;49000;50.698;13.322;2022-08-19T13:02:52;20.40;99.90
62904;DHT22;49000;50.698;13.322;2022-08-19T13:05:21;20.50;99.90
62904;DHT22;49000;50.698;13.322;2022-08-19T13:07:49;20.40;99.90
62904;DHT22;49000;50.698;13.322;2022-08-19T13:10:18;20.10;99.90
62904;DHT22;49000;50.698;13.322;2022-08-19T13:12:46;20.00;99.90
62904;DHT22;49000;50.698;13.322;2022-08-19T13:15:13;19.90;99.90
62904;DHT22;49000;50.698;13.322;2022-08-19T13:17:39;19.80;99.90
62904;DHT22;49000;50.698;13.322;2022-08-19T13:20:06;19.60;99.90
62904;DHT22;49000;50.698;13.322;2022-08-19T13:22:33;19.60;99.90
62904;DHT22;49000;50.698;13.322;2022-08-19T13:25:01;19.60;99.90
62904;DHT22;49000;50.698;13.322;2022-08-19T13:27:26;19.60;99.90
62904;DHT22;49000;50.698;13.322;2022-08-19T13:29:52;19.50;99.90
62904;DHT22;49000;50.698;13.322;2022-08-19T13:32:36;19.50;99.90
62904;DHT22;49000;50.698;13.322;2022-08-19T13:35:20;19.60;99.90
62904;DHT22;49000;50.698;13.322;2022-08-19T13:37:45;19.50;99.90
62904;DHT22;49000;50.698;13.322;2022-08-19T13:40:17;19.60;99.90
62904;DHT22;49000;50.698;13.322;2022-08-19T13:42:49;19.70;99.90
62904;DHT22;49000;50.698;13.322;2022-08-19T13:45:17;19.80;99.90
62904;DHT22;49000;50.698;13.322;2022-08-19T13:47:54;19.80;99.90
62904;DHT22;49000;50.698;13.322;2022-08-19T13:50:24;19.80;99.90
62904;DHT22;49000;50.698;13.322;2022-08-19T13:52:53;19.90;99.90
62904;DHT22;49000;50.698;13.322;2022-08-19T13:55:20;20.00;99.90
62904;DHT22;49000;50.698;13.322;2022-08-19T13:57:46;20.20;99.90
62904;DHT22;49000;50.698;13.322;2022-08-19T14:00:16;20.50;99.90
62904;DHT22;49000;50.698;13.322;2022-08-19T14:02:45;20.40;99.90
62904;DHT22;49000;50.698;13.322;2022-08-19T14:05:13;20.20;99.90
62904;DHT22;49000;50.698;13.322;2022-08-19T14:07:39;20.10;99.90
62904;DHT22;49000;50.698;13.322;2022-08-19T14:10:06;20.10;99.90
62904;DHT22;49000;50.698;13.322;2022-08-19T14:12:33;20.10;99.90
62904;DHT22;49000;50.698;13.322;2022-08-19T14:14:59;20.10;99.90
62904;DHT22;49000;50.698;13.322;2022-08-19T14:17:24;20.10;99.90
62904;DHT22;49000;50.698;13.322;2022-08-19T14:19:56;20.10;99.90
62904;DHT22;49000;50.698;13.322;2022-08-19T14:22:22;20.10;99.90
62904;DHT22;49000;50.698;13.322;2022-08-19T14:24:47;20.20;99.90
62904;DHT22;49000;50.698;13.322;2022-08-19T14:27:13;20.20;99.90
62904;DHT22;49000;50.698;13.322;2022-08-19T14:29:39;20.20;99.90
62904;DHT22;49000;50.698;13.322;2022-08-19T14:32:05;20.20;99.90
62904;DHT22;49000;50.698;13.322;2022-08-19T14:34:31;20.10;99.90
62904;DHT22;49000;50.698;13.322;2022-08-19T14:36:57;20.10;99.90
62904;DHT22;49000;50.698;13.322;2022-08-19T14:39:23;20.10;99.90
62904;DHT22;49000;50.698;13.322;2022-08-19T14:41:48;19.90;99.90
62904;DHT22;49000;50.698;13.322;2022-08-19T14:44:14;19.90;99.90
62904;DHT22;49000;50.698;13.322;2022-08-19T14:46:39;19.90;99.90
62904;DHT22;49000;50.698;13.322;2022-08-19T14:49:06;19.80;99.90
62904;DHT22;49000;50.698;13.322;2022-08-19T14:51:32;19.90;99.90
62904;DHT22;49000;50.698;13.322;2022-08-19T14:53:58;19.80;99.90
62904;DHT22;49000;50.698;13.322;2022-08-19T14:56:27;19.60;99.90
62904;DHT22;49000;50.698;13.322;2022-08-19T14:58:53;19.60;99.90
62904;DHT22;49000;50.698;13.322;2022-08-19T15:01:22;19.50;99.90
62904;DHT22;49000;50.698;13.322;2022-08-19T15:03:48;19.50;99.90
62904;DHT22;49000;50.698;13.322;2022-08-19T15:06:14;19.60;99.90
62904;DHT22;49000;50.698;13.322;2022-08-19T15:08:41;19.50;99.90
62904;DHT22;49000;50.698;13.322;2022-08-19T15:11:10;19.40;99.90
62904;DHT22;49000;50.698;13.322;2022-08-19T15:13:36;19.40;99.90
62904;DHT22;49000;50.698;13.322;2022-08-19T15:16:02;19.60;99.90
62904;DHT22;49000;50.698;13.322;2022-08-19T15:18:27;19.50;99.90
62904;DHT22;49000;50.698;13.322;2022-08-19T15:20:53;19.50;99.90